createdAt,value
2022-09-24T00:00:54.870Z,1009.07
2022-09-24T00:01:54.906Z,1009.08
2022-09-24T00:02:54.906Z,1009.10
2022-09-24T00:03:54.839Z,1009.08
2022-09-24T00:04:54.809Z,1009.10
2022-09-24T00:05:54.800Z,1009.12
2022-09-24T00:06:54.780Z,1009.07
2022-09-24T00:07:54.772Z,1009.08
2022-09-24T00:08:54.759Z,1009.09
2022-09-24T00:09:54.777Z,1009.10
2022-09-24T00:10:54.749Z,1009.10
2022-09-24T00:11:54.723Z,1009.12
2022-09-24T00:12:54.709Z,1009.13
2022-09-24T00:13:54.693Z,1009.14
2022-09-24T00:14:54.704Z,1009.13
2022-09-24T00:15:54.818Z,1009.12
2022-09-24T00:16:54.664Z,1009.14
2022-09-24T00:17:54.649Z,1009.11
2022-09-24T00:18:54.641Z,1009.06
2022-09-24T00:19:54.635Z,1009.07
2022-09-24T00:20:54.640Z,1009.10
2022-09-24T00:21:54.644Z,1009.14
2022-09-24T00:22:54.616Z,1009.07
2022-09-24T00:23:54.584Z,1009.10
2022-09-24T00:24:54.573Z,1009.16
2022-09-24T00:25:54.571Z,1009.10
2022-09-24T00:26:54.570Z,1009.13
2022-09-24T00:27:54.563Z,1009.13
2022-09-24T00:28:54.536Z,1009.09
2022-09-24T00:29:54.569Z,1009.09
2022-09-24T00:30:54.626Z,1009.08
2022-09-24T00:31:54.574Z,1009.08
2022-09-24T00:32:54.485Z,1009.08
2022-09-24T00:33:54.478Z,1009.03
2022-09-24T00:34:54.458Z,1009.06
2022-09-24T00:35:54.479Z,1009.03
2022-09-24T00:36:54.430Z,1009.00
2022-09-24T00:37:54.423Z,1008.95
2022-09-24T00:38:54.420Z,1009.00
2022-09-24T00:39:54.440Z,1008.97
2022-09-24T00:40:54.590Z,1008.92
2022-09-24T00:41:54.373Z,1008.89
2022-09-24T00:42:54.387Z,1008.93
2022-09-24T00:43:54.357Z,1008.90
2022-09-24T00:44:54.713Z,1008.86
2022-09-24T00:45:54.392Z,1008.91
2022-09-24T00:46:54.415Z,1008.92
2022-09-24T00:47:54.307Z,1008.92
2022-09-24T00:48:54.291Z,1008.89
2022-09-24T00:49:54.278Z,1008.88
2022-09-24T00:50:54.280Z,1008.85
2022-09-24T00:51:54.288Z,1008.87
2022-09-24T00:52:54.247Z,1008.86
2022-09-24T00:53:54.240Z,1008.86
2022-09-24T00:54:54.221Z,1008.84
2022-09-24T00:55:54.261Z,1008.81
2022-09-24T00:56:54.204Z,1008.84
2022-09-24T00:57:54.230Z,1008.84
2022-09-24T00:58:54.184Z,1008.84
2022-09-24T00:59:54.167Z,1008.81
2022-09-24T01:00:54.219Z,1008.82
2022-09-24T01:01:54.230Z,1008.82
2022-09-24T01:02:54.153Z,1008.81
2022-09-24T01:03:54.165Z,1008.79
2022-09-24T01:04:56.435Z,1008.81
2022-09-24T01:05:54.133Z,1008.80
2022-09-24T01:06:54.089Z,1008.80
2022-09-24T01:07:54.073Z,1008.81
2022-09-24T01:08:54.059Z,1008.78
2022-09-24T01:09:54.082Z,1008.73
2022-09-24T01:10:54.058Z,1008.77
2022-09-24T01:11:54.035Z,1008.77
2022-09-24T01:12:54.048Z,1008.76
2022-09-24T01:13:54.010Z,1008.75
2022-09-24T01:14:53.997Z,1008.74
2022-09-24T01:15:54.054Z,1008.75
2022-09-24T01:16:53.976Z,1008.74
2022-09-24T01:17:53.977Z,1008.73
2022-09-24T01:18:53.962Z,1008.71
2022-09-24T01:19:53.933Z,1008.69
2022-09-24T01:20:53.941Z,1008.69
2022-09-24T01:21:53.961Z,1008.68
2022-09-24T01:22:53.902Z,1008.65
2022-09-24T01:23:53.898Z,1008.69
2022-09-24T01:24:53.879Z,1008.67
2022-09-24T01:25:53.896Z,1008.67
2022-09-24T01:26:53.877Z,1008.62
2022-09-24T01:27:53.847Z,1008.62
2022-09-24T01:28:53.852Z,1008.61
2022-09-24T01:29:53.828Z,1008.62
2022-09-24T01:30:53.831Z,1008.57
2022-09-24T01:31:53.854Z,1008.62
2022-09-24T01:32:53.790Z,1008.61
2022-09-24T01:33:53.790Z,1008.61
2022-09-24T01:34:53.794Z,1008.60
2022-09-24T01:35:53.772Z,1008.60
2022-09-24T01:36:53.741Z,1008.58
2022-09-24T01:37:53.737Z,1008.56
2022-09-24T01:38:53.718Z,1008.54
2022-09-24T01:39:53.716Z,1008.55
2022-09-24T01:40:53.790Z,1008.59
2022-09-24T01:41:53.781Z,1008.57
2022-09-24T01:42:53.676Z,1008.59
2022-09-24T01:43:53.674Z,1008.53
2022-09-24T01:44:53.652Z,1008.54
2022-09-24T01:45:53.660Z,1008.52
2022-09-24T01:46:53.747Z,1008.54
2022-09-24T01:47:53.684Z,1008.50
2022-09-24T01:48:53.606Z,1008.52
2022-09-24T01:49:53.593Z,1008.51
2022-09-24T01:50:53.620Z,1008.48
2022-09-24T01:51:53.564Z,1008.49
2022-09-24T01:52:53.612Z,1008.43
2022-09-24T01:53:53.600Z,1008.42
2022-09-24T01:54:53.540Z,1008.46
2022-09-24T01:55:53.548Z,1008.41
2022-09-24T01:56:53.510Z,1008.41
2022-09-24T01:57:53.539Z,1008.40
2022-09-24T01:58:53.484Z,1008.35
2022-09-24T01:59:53.502Z,1008.40
2022-09-24T02:00:53.522Z,1008.33
2022-09-24T02:01:53.513Z,1008.35
2022-09-24T02:02:53.447Z,1008.34
2022-09-24T02:03:53.439Z,1008.34
2022-09-24T02:04:53.413Z,1008.43
2022-09-24T02:05:53.481Z,1008.39
2022-09-24T02:06:53.415Z,1008.43
2022-09-24T02:07:53.384Z,1008.35
2022-09-24T02:08:53.367Z,1008.29
2022-09-24T02:09:53.381Z,1008.37
2022-09-24T02:10:53.373Z,1008.32
2022-09-24T02:11:53.400Z,1008.30
2022-09-24T02:12:53.327Z,1008.28
2022-09-24T02:13:53.314Z,1008.28
2022-09-24T02:14:53.312Z,1008.28
2022-09-24T02:15:53.402Z,1008.28
2022-09-24T02:16:53.283Z,1008.24
2022-09-24T02:17:53.269Z,1008.25
2022-09-24T02:18:53.250Z,1008.28
2022-09-24T02:19:53.265Z,1008.22
2022-09-24T02:20:53.252Z,1008.23
2022-09-24T02:21:53.223Z,1008.22
2022-09-24T02:22:53.234Z,1008.24
2022-09-24T02:23:53.205Z,1008.24
2022-09-24T02:24:53.192Z,1008.22
2022-09-24T02:25:53.279Z,1008.25
2022-09-24T02:26:53.164Z,1008.25
2022-09-24T02:27:53.160Z,1008.24
2022-09-24T02:28:53.210Z,1008.29
2022-09-24T02:29:53.195Z,1008.27
2022-09-24T02:30:53.140Z,1008.24
2022-09-24T02:31:53.215Z,1008.29
2022-09-24T02:32:53.137Z,1008.25
2022-09-24T02:33:53.099Z,1008.21
2022-09-24T02:34:53.080Z,1008.17
2022-09-24T02:35:53.075Z,1008.22
2022-09-24T02:36:53.058Z,1008.25
2022-09-24T02:37:53.043Z,1008.23
2022-09-24T02:38:53.099Z,1008.21
2022-09-24T02:39:53.029Z,1008.26
2022-09-24T02:40:53.096Z,1008.21
2022-09-24T02:41:52.995Z,1008.21
2022-09-24T02:42:52.982Z,1008.22
2022-09-24T02:43:52.970Z,1008.20
2022-09-24T02:44:52.984Z,1008.17
2022-09-24T02:45:52.971Z,1008.15
2022-09-24T02:46:53.047Z,1008.12
2022-09-24T02:47:52.931Z,1008.13
2022-09-24T02:48:52.918Z,1008.11
2022-09-24T02:49:52.911Z,1008.12
2022-09-24T02:50:52.921Z,1008.14
2022-09-24T02:51:52.912Z,1008.08
2022-09-24T02:52:52.872Z,1008.09
2022-09-24T02:53:52.860Z,1008.11
2022-09-24T02:54:52.867Z,1008.12
2022-09-24T02:55:52.858Z,1008.12
2022-09-24T02:56:52.826Z,1008.03
2022-09-24T02:57:52.836Z,1008.08
2022-09-24T02:58:52.805Z,1008.10
2022-09-24T02:59:52.791Z,1008.11
2022-09-24T03:00:52.799Z,1008.07
2022-09-24T03:01:52.943Z,1008.04
2022-09-24T03:02:52.862Z,1008.06
2022-09-24T03:03:52.791Z,1008.06
2022-09-24T03:04:52.743Z,1007.99
2022-09-24T03:05:52.749Z,1008.02
2022-09-24T03:06:52.721Z,1008.01
2022-09-24T03:07:52.698Z,1008.01
2022-09-24T03:08:52.696Z,1008.07
2022-09-24T03:09:52.704Z,1008.03
2022-09-24T03:10:52.714Z,1008.01
2022-09-24T03:11:52.663Z,1008.01
2022-09-24T03:12:52.642Z,1008.05
2022-09-24T03:13:52.641Z,1008.04
2022-09-24T03:14:52.624Z,1007.99
2022-09-24T03:15:52.715Z,1007.99
2022-09-24T03:16:52.633Z,1008.03
2022-09-24T03:17:52.591Z,1008.05
2022-09-24T03:18:52.590Z,1008.05
2022-09-24T03:19:52.569Z,1008.07
2022-09-24T03:20:52.569Z,1008.05
2022-09-24T03:21:52.568Z,1008.07
2022-09-24T03:22:52.538Z,1008.06
2022-09-24T03:23:52.526Z,1008.07
2022-09-24T03:24:52.529Z,1008.07
2022-09-24T03:25:52.516Z,1008.03
2022-09-24T03:26:52.514Z,1008.01
2022-09-24T03:27:52.511Z,1007.95
2022-09-24T03:28:52.477Z,1007.98
2022-09-24T03:29:52.455Z,1007.95
2022-09-24T03:30:52.464Z,1008.02
2022-09-24T03:31:52.501Z,1008.03
2022-09-24T03:32:52.422Z,1007.99
2022-09-24T03:33:52.521Z,1007.97
2022-09-24T03:34:52.401Z,1007.94
2022-09-24T03:35:52.396Z,1007.98
2022-09-24T03:36:52.372Z,1007.99
2022-09-24T03:37:52.360Z,1008.06
2022-09-24T03:38:52.362Z,1008.01
2022-09-24T03:39:52.373Z,1007.95
2022-09-24T03:40:52.391Z,1007.94
2022-09-24T03:41:52.342Z,1007.97
2022-09-24T03:42:52.324Z,1007.90
2022-09-24T03:43:52.309Z,1008.00
2022-09-24T03:44:52.290Z,1007.97
2022-09-24T03:45:52.336Z,1007.99
2022-09-24T03:46:52.322Z,1007.95
2022-09-24T03:47:52.257Z,1008.00
2022-09-24T03:48:52.251Z,1007.95
2022-09-24T03:49:52.230Z,1007.90
2022-09-24T03:50:52.239Z,1007.97
2022-09-24T03:51:52.285Z,1007.97
2022-09-24T03:52:52.206Z,1007.96
2022-09-24T03:53:52.194Z,1007.96
2022-09-24T03:54:52.179Z,1007.89
2022-09-24T03:55:52.187Z,1007.86
2022-09-24T03:56:52.201Z,1007.91
2022-09-24T03:57:52.141Z,1007.94
2022-09-24T03:58:52.261Z,1007.91
2022-09-24T03:59:52.116Z,1007.86
2022-09-24T04:00:52.184Z,1007.87
2022-09-24T04:01:52.173Z,1007.83
2022-09-24T04:02:52.188Z,1007.82
2022-09-24T04:03:52.080Z,1007.87
2022-09-24T04:04:52.063Z,1007.87
2022-09-24T04:05:52.065Z,1007.87
2022-09-24T04:06:52.039Z,1007.84
2022-09-24T04:07:52.026Z,1007.87
2022-09-24T04:08:52.042Z,1007.84
2022-09-24T04:09:52.006Z,1007.88
2022-09-24T04:10:52.012Z,1007.78
2022-09-24T04:11:51.986Z,1007.81
2022-09-24T04:12:52.065Z,1007.82
2022-09-24T04:13:51.960Z,1007.82
2022-09-24T04:14:51.972Z,1007.80
2022-09-24T04:15:52.047Z,1007.76
2022-09-24T04:16:51.936Z,1007.74
2022-09-24T04:17:51.920Z,1007.75
2022-09-24T04:18:51.943Z,1007.72
2022-09-24T04:19:51.891Z,1007.73
2022-09-24T04:20:51.901Z,1007.70
2022-09-24T04:21:51.868Z,1007.70
2022-09-24T04:22:51.896Z,1007.70
2022-09-24T04:23:51.849Z,1007.74
2022-09-24T04:24:51.837Z,1007.69
2022-09-24T04:25:51.837Z,1007.72
2022-09-24T04:26:51.814Z,1007.68
2022-09-24T04:27:51.813Z,1007.69
2022-09-24T04:28:51.808Z,1007.72
2022-09-24T04:29:51.782Z,1007.70
2022-09-24T04:30:51.882Z,1007.74
2022-09-24T04:31:51.859Z,1007.73
2022-09-24T04:32:51.753Z,1007.72
2022-09-24T04:33:51.740Z,1007.71
2022-09-24T04:34:51.760Z,1007.67
2022-09-24T04:35:51.743Z,1007.66
2022-09-24T04:36:51.701Z,1007.67
2022-09-24T04:37:51.697Z,1007.70
2022-09-24T04:38:51.710Z,1007.65
2022-09-24T04:39:51.816Z,1007.62
2022-09-24T04:40:51.884Z,1007.61
2022-09-24T04:41:51.662Z,1007.66
2022-09-24T04:42:51.715Z,1007.64
2022-09-24T04:43:51.643Z,1007.64
2022-09-24T04:44:55.858Z,1007.62
2022-09-24T04:45:51.675Z,1007.64
2022-09-24T04:46:51.653Z,1007.65
2022-09-24T04:47:51.581Z,1007.67
2022-09-24T04:48:51.625Z,1007.65
2022-09-24T04:49:51.562Z,1007.68
2022-09-24T04:50:51.561Z,1007.71
2022-09-24T04:51:51.534Z,1007.69
2022-09-24T04:52:51.529Z,1007.73
2022-09-24T04:53:51.558Z,1007.72
2022-09-24T04:54:51.507Z,1007.73
2022-09-24T04:55:51.538Z,1007.81
2022-09-24T04:56:51.488Z,1007.81
2022-09-24T04:57:51.472Z,1007.77
2022-09-24T04:58:51.456Z,1007.79
2022-09-24T04:59:51.454Z,1007.80
2022-09-24T05:00:51.453Z,1007.80
2022-09-24T05:01:51.513Z,1007.80
2022-09-24T05:02:51.556Z,1007.80
2022-09-24T05:03:51.423Z,1007.79
2022-09-24T05:04:51.405Z,1007.81
2022-09-24T05:05:51.463Z,1007.83
2022-09-24T05:06:51.371Z,1007.83
2022-09-24T05:07:51.363Z,1007.82
2022-09-24T05:08:51.400Z,1007.80
2022-09-24T05:09:51.335Z,1007.77
2022-09-24T05:10:51.336Z,1007.80
2022-09-24T05:11:51.318Z,1007.82
2022-09-24T05:12:51.297Z,1007.79
2022-09-24T05:13:51.292Z,1007.80
2022-09-24T05:14:51.332Z,1007.80
2022-09-24T05:15:51.341Z,1007.81
2022-09-24T05:16:51.278Z,1007.83
2022-09-24T05:17:51.272Z,1007.80
2022-09-24T05:18:51.253Z,1007.81
2022-09-24T05:19:51.221Z,1007.82
2022-09-24T05:20:51.258Z,1007.81
2022-09-24T05:21:51.288Z,1007.87
2022-09-24T05:22:51.191Z,1007.81
2022-09-24T05:23:51.217Z,1007.76
2022-09-24T05:24:51.164Z,1007.85
2022-09-24T05:25:51.157Z,1007.86
2022-09-24T05:26:51.170Z,1007.85
2022-09-24T05:27:51.195Z,1007.83
2022-09-24T05:28:51.122Z,1007.84
2022-09-24T05:29:51.116Z,1007.84
2022-09-24T05:30:51.157Z,1007.82
2022-09-24T05:31:51.217Z,1007.82
2022-09-24T05:32:51.083Z,1007.84
2022-09-24T05:33:51.105Z,1007.82
2022-09-24T05:34:51.095Z,1007.82
2022-09-24T05:35:51.120Z,1007.81
2022-09-24T05:36:51.051Z,1007.83
2022-09-24T05:37:51.028Z,1007.83
2022-09-24T05:38:51.019Z,1007.84
2022-09-24T05:39:51.018Z,1007.83
2022-09-24T05:40:51.078Z,1007.80
2022-09-24T05:41:51.003Z,1007.80
2022-09-24T05:42:50.989Z,1007.80
2022-09-24T05:43:50.952Z,1007.79
2022-09-24T05:44:52.429Z,1007.81
2022-09-24T05:45:50.940Z,1007.77
2022-09-24T05:46:51.020Z,1007.77
2022-09-24T05:47:50.911Z,1007.76
2022-09-24T05:48:50.996Z,1007.78
2022-09-24T05:49:50.900Z,1007.75
2022-09-24T05:50:50.901Z,1007.74
2022-09-24T05:51:50.879Z,1007.81
2022-09-24T05:52:50.899Z,1007.78
2022-09-24T05:53:50.839Z,1007.83
2022-09-24T05:54:50.834Z,1007.86
2022-09-24T05:55:50.815Z,1007.84
2022-09-24T05:56:50.824Z,1007.86
2022-09-24T05:57:50.798Z,1007.81
2022-09-24T05:58:50.780Z,1007.83
2022-09-24T05:59:50.778Z,1007.82
2022-09-24T06:00:50.814Z,1007.86
2022-09-24T06:01:50.881Z,1007.85
2022-09-24T06:02:50.856Z,1007.86
2022-09-24T06:03:50.729Z,1007.84
2022-09-24T06:04:50.738Z,1007.86
2022-09-24T06:05:50.705Z,1007.88
2022-09-24T06:06:50.730Z,1007.85
2022-09-24T06:07:50.701Z,1007.94
2022-09-24T06:08:51.240Z,1007.95
2022-09-24T06:09:50.662Z,1007.95
2022-09-24T06:10:50.656Z,1007.95
2022-09-24T06:11:50.660Z,1007.96
2022-09-24T06:12:50.664Z,1007.97
2022-09-24T06:13:50.624Z,1007.98
2022-09-24T06:14:50.617Z,1007.95
2022-09-24T06:15:50.687Z,1008.01
2022-09-24T06:16:50.624Z,1007.96
2022-09-24T06:17:50.604Z,1007.97
2022-09-24T06:18:50.567Z,1007.96
2022-09-24T06:19:50.555Z,1007.95
2022-09-24T06:20:50.548Z,1007.92
2022-09-24T06:21:50.604Z,1007.97
2022-09-24T06:22:50.564Z,1007.93
2022-09-24T06:23:50.604Z,1007.96
2022-09-24T06:24:50.548Z,1007.95
2022-09-24T06:25:50.521Z,1007.99
2022-09-24T06:26:50.507Z,1007.95
2022-09-24T06:27:50.476Z,1007.93
2022-09-24T06:28:50.452Z,1007.95
2022-09-24T06:29:50.530Z,1007.95
2022-09-24T06:30:50.489Z,1007.94
2022-09-24T06:31:50.607Z,1007.97
2022-09-24T06:32:50.469Z,1007.93
2022-09-24T06:33:50.394Z,1007.95
2022-09-24T06:34:52.398Z,1007.95
2022-09-24T06:35:51.373Z,1007.94
2022-09-24T06:36:50.385Z,1007.92
2022-09-24T06:37:50.363Z,1007.95
2022-09-24T06:38:50.367Z,1007.93
2022-09-24T06:39:50.330Z,1007.91
2022-09-24T06:40:50.424Z,1007.91
2022-09-24T06:41:50.322Z,1007.89
2022-09-24T06:42:50.292Z,1007.90
2022-09-24T06:43:50.308Z,1007.92
2022-09-24T06:44:50.297Z,1007.91
2022-09-24T06:45:50.262Z,1007.92
2022-09-24T06:46:50.353Z,1007.90
2022-09-24T06:47:50.242Z,1007.92
2022-09-24T06:48:50.227Z,1007.93
2022-09-24T06:49:50.212Z,1007.90
2022-09-24T06:50:50.221Z,1007.89
2022-09-24T06:51:50.217Z,1007.89
2022-09-24T06:52:50.287Z,1007.92
2022-09-24T06:53:50.190Z,1007.92
2022-09-24T06:54:50.191Z,1007.89
2022-09-24T06:55:50.153Z,1007.89
2022-09-24T06:56:50.162Z,1007.94
2022-09-24T06:57:50.130Z,1007.91
2022-09-24T06:58:50.119Z,1007.87
2022-09-24T06:59:50.133Z,1007.94
2022-09-24T07:00:50.191Z,1007.90
2022-09-24T07:01:50.196Z,1007.89
2022-09-24T07:02:50.132Z,1007.91
2022-09-24T07:03:50.089Z,1007.87
2022-09-24T07:04:50.072Z,1007.92
2022-09-24T07:05:50.040Z,1007.93
2022-09-24T07:06:50.042Z,1007.92
2022-09-24T07:07:50.043Z,1007.90
2022-09-24T07:08:50.006Z,1007.94
2022-09-24T07:09:50.059Z,1007.90
2022-09-24T07:10:50.043Z,1007.95
2022-09-24T07:11:50.004Z,1008.00
2022-09-24T07:12:49.980Z,1008.04
2022-09-24T07:13:49.961Z,1007.99
2022-09-24T07:14:49.947Z,1008.05
2022-09-24T07:15:50.028Z,1008.08
2022-09-24T07:16:49.938Z,1008.06
2022-09-24T07:17:49.917Z,1008.09
2022-09-24T07:18:49.904Z,1008.10
2022-09-24T07:19:49.978Z,1008.11
2022-09-24T07:20:49.875Z,1008.10
2022-09-24T07:21:49.886Z,1008.10
2022-09-24T07:22:49.850Z,1008.13
2022-09-24T07:23:49.829Z,1008.17
2022-09-24T07:24:49.843Z,1008.15
2022-09-24T07:25:49.817Z,1008.15
2022-09-24T07:26:49.915Z,1008.18
2022-09-24T07:27:49.875Z,1008.15
2022-09-24T07:28:49.787Z,1008.18
2022-09-24T07:29:49.781Z,1008.18
2022-09-24T07:30:49.812Z,1008.18
2022-09-24T07:31:49.841Z,1008.18
2022-09-24T07:32:49.736Z,1008.19
2022-09-24T07:33:49.730Z,1008.20
2022-09-24T07:34:49.713Z,1008.18
2022-09-24T07:35:49.701Z,1008.17
2022-09-24T07:36:49.779Z,1008.21
2022-09-24T07:37:49.690Z,1008.18
2022-09-24T07:38:49.692Z,1008.23
2022-09-24T07:39:49.698Z,1008.27
2022-09-24T07:40:49.816Z,1008.24
2022-09-24T07:41:49.711Z,1008.20
2022-09-24T07:42:49.657Z,1008.20
2022-09-24T07:43:49.627Z,1008.24
2022-09-24T07:44:49.611Z,1008.19
2022-09-24T07:45:49.681Z,1008.22
2022-09-24T07:46:49.670Z,1008.20
2022-09-24T07:47:49.570Z,1008.24
2022-09-24T07:48:49.554Z,1008.18
2022-09-24T07:49:49.556Z,1008.21
2022-09-24T07:50:49.535Z,1008.19
2022-09-24T07:51:49.539Z,1008.17
2022-09-24T07:52:49.507Z,1008.19
2022-09-24T07:53:49.502Z,1008.14
2022-09-24T07:54:49.535Z,1008.22
2022-09-24T07:55:49.497Z,1008.23
2022-09-24T07:56:49.464Z,1008.24
2022-09-24T07:57:49.450Z,1008.24
2022-09-24T07:58:49.458Z,1008.22
2022-09-24T07:59:49.436Z,1008.27
2022-09-24T08:00:49.431Z,1008.25
2022-09-24T08:01:49.452Z,1008.25
2022-09-24T08:02:49.398Z,1008.24
2022-09-24T08:03:49.400Z,1008.24
2022-09-24T08:04:49.393Z,1008.24
2022-09-24T08:05:49.370Z,1008.26
2022-09-24T08:06:49.370Z,1008.26
2022-09-24T08:07:49.344Z,1008.24
2022-09-24T08:08:49.330Z,1008.22
2022-09-24T08:09:49.319Z,1008.21
2022-09-24T08:10:49.306Z,1008.22
2022-09-24T08:11:49.317Z,1008.24
2022-09-24T08:12:49.287Z,1008.22
2022-09-24T08:13:49.275Z,1008.26
2022-09-24T08:14:49.371Z,1008.25
2022-09-24T08:15:49.286Z,1008.27
2022-09-24T08:16:49.256Z,1008.27
2022-09-24T08:17:49.240Z,1008.29
2022-09-24T08:18:49.234Z,1008.32
2022-09-24T08:19:49.208Z,1008.33
2022-09-24T08:20:49.215Z,1008.30
2022-09-24T08:21:49.220Z,1008.28
2022-09-24T08:22:49.171Z,1008.25
2022-09-24T08:23:50.118Z,1008.31
2022-09-24T08:24:49.191Z,1008.30
2022-09-24T08:25:49.151Z,1008.29
2022-09-24T08:26:49.168Z,1008.29
2022-09-24T08:27:49.126Z,1008.29
2022-09-24T08:28:49.123Z,1008.30
2022-09-24T08:29:49.122Z,1008.29
2022-09-24T08:30:49.193Z,1008.25
2022-09-24T08:31:49.080Z,1008.28
2022-09-24T08:32:49.066Z,1008.25
2022-09-24T08:33:49.084Z,1008.27
2022-09-24T08:34:49.034Z,1008.28
2022-09-24T08:35:49.026Z,1008.25
2022-09-24T08:36:49.118Z,1008.28
2022-09-24T08:37:48.997Z,1008.29
2022-09-24T08:38:48.989Z,1008.26
2022-09-24T08:39:48.974Z,1008.26
2022-09-24T08:40:49.003Z,1008.28
2022-09-24T08:41:48.962Z,1008.27
2022-09-24T08:42:48.953Z,1008.28
2022-09-24T08:43:48.940Z,1008.28
2022-09-24T08:44:48.935Z,1008.28
2022-09-24T08:45:48.907Z,1008.29
2022-09-24T08:46:48.994Z,1008.26
2022-09-24T08:47:48.888Z,1008.26
2022-09-24T08:48:48.868Z,1008.26
2022-09-24T08:49:48.869Z,1008.28
2022-09-24T08:50:48.854Z,1008.29
2022-09-24T08:51:48.883Z,1008.29
2022-09-24T08:52:48.829Z,1008.32
2022-09-24T08:53:48.816Z,1008.31
2022-09-24T08:54:48.810Z,1008.33
2022-09-24T08:55:48.790Z,1008.34
2022-09-24T08:56:48.790Z,1008.35
2022-09-24T08:57:48.820Z,1008.36
2022-09-24T08:58:48.765Z,1008.38
2022-09-24T08:59:48.744Z,1008.39
2022-09-24T09:00:48.746Z,1008.36
2022-09-24T09:01:48.879Z,1008.36
2022-09-24T09:02:48.785Z,1008.39
2022-09-24T09:03:48.697Z,1008.37
2022-09-24T09:04:48.684Z,1008.35
2022-09-24T09:05:49.713Z,1008.32
2022-09-24T09:06:48.679Z,1008.36
2022-09-24T09:07:48.656Z,1008.38
2022-09-24T09:09:06.288Z,1008.34
2022-09-24T09:09:49.712Z,1008.31
2022-09-24T09:10:48.619Z,1008.34
2022-09-24T09:11:48.613Z,1008.32
2022-09-24T09:12:48.598Z,1008.33
2022-09-24T09:13:48.605Z,1008.34
2022-09-24T09:14:48.569Z,1008.36
2022-09-24T09:15:48.650Z,1008.35
2022-09-24T09:16:48.569Z,1008.34
2022-09-24T09:17:48.532Z,1008.32
2022-09-24T09:18:48.549Z,1008.24
2022-09-24T09:19:53.534Z,1008.30
2022-09-24T09:20:49.500Z,1008.32
2022-09-24T09:21:48.502Z,1008.31
2022-09-24T09:22:48.482Z,1008.32
2022-09-24T09:23:48.461Z,1008.34
2022-09-24T09:24:48.449Z,1008.32
2022-09-24T09:25:48.438Z,1008.37
2022-09-24T09:26:48.444Z,1008.29
2022-09-24T09:27:48.425Z,1008.29
2022-09-24T09:28:48.418Z,1008.30
2022-09-24T09:29:48.392Z,1008.32
2022-09-24T09:30:48.411Z,1008.33
2022-09-24T09:31:51.358Z,1008.35
2022-09-24T09:32:49.368Z,1008.32
2022-09-24T09:33:48.353Z,1008.31
2022-09-24T09:34:48.360Z,1008.29
2022-09-24T09:35:48.330Z,1008.25
2022-09-24T09:36:48.340Z,1008.22
2022-09-24T09:37:48.317Z,1008.26
2022-09-24T09:38:48.291Z,1008.22
2022-09-24T09:39:48.311Z,1008.23
2022-09-24T09:40:48.354Z,1008.21
2022-09-24T09:41:48.279Z,1008.25
2022-09-24T09:42:48.252Z,1008.27
2022-09-24T09:43:48.230Z,1008.25
2022-09-24T09:44:48.230Z,1008.26
2022-09-24T09:45:48.216Z,1008.31
2022-09-24T09:46:48.295Z,1008.25
2022-09-24T09:47:48.195Z,1008.24
2022-09-24T09:48:48.184Z,1008.24
2022-09-24T09:49:48.167Z,1008.23
2022-09-24T09:50:48.258Z,1008.19
2022-09-24T09:51:48.158Z,1008.17
2022-09-24T09:52:48.140Z,1008.20
2022-09-24T09:53:48.125Z,1008.12
2022-09-24T09:54:48.117Z,1008.17
2022-09-24T09:55:48.108Z,1008.19
2022-09-24T09:56:48.102Z,1008.15
2022-09-24T09:57:48.077Z,1008.16
2022-09-24T09:58:48.069Z,1008.19
2022-09-24T09:59:48.054Z,1008.19
2022-09-24T10:00:48.042Z,1008.18
2022-09-24T10:01:48.093Z,1008.23
2022-09-24T10:02:48.285Z,1008.21
2022-09-24T10:03:48.014Z,1008.15
2022-09-24T10:04:51.927Z,1008.20
2022-09-24T10:05:47.987Z,1008.19
2022-09-24T10:06:48.098Z,1008.21
2022-09-24T10:07:47.969Z,1008.21
2022-09-24T10:08:47.951Z,1008.18
2022-09-24T10:09:47.952Z,1008.18
2022-09-24T10:10:47.933Z,1008.18
2022-09-24T10:11:47.922Z,1008.21
2022-09-24T10:12:47.912Z,1008.17
2022-09-24T10:13:47.897Z,1008.17
2022-09-24T10:14:47.891Z,1008.17
2022-09-24T10:15:47.902Z,1008.18
2022-09-24T10:16:47.975Z,1008.19
2022-09-24T10:17:47.870Z,1008.17
2022-09-24T10:18:47.834Z,1008.15
2022-09-24T10:19:48.012Z,1008.16
2022-09-24T10:20:47.816Z,1008.14
2022-09-24T10:21:47.819Z,1008.15
2022-09-24T10:22:47.820Z,1008.15
2022-09-24T10:23:47.784Z,1008.15
2022-09-24T10:24:47.772Z,1008.18
2022-09-24T10:25:47.759Z,1008.15
2022-09-24T10:26:47.782Z,1008.13
2022-09-24T10:27:47.735Z,1008.14
2022-09-24T10:28:47.722Z,1008.17
2022-09-24T10:29:47.710Z,1008.14
2022-09-24T10:30:47.702Z,1008.14
2022-09-24T10:31:47.812Z,1008.21
2022-09-24T10:32:47.688Z,1008.12
2022-09-24T10:33:47.723Z,1008.13
2022-09-24T10:34:47.667Z,1008.12
2022-09-24T10:35:47.690Z,1008.17
2022-09-24T10:36:47.648Z,1008.17
2022-09-24T10:37:47.630Z,1008.17
2022-09-24T10:38:47.711Z,1008.18
2022-09-24T10:39:47.614Z,1008.15
2022-09-24T10:40:47.656Z,1008.18
2022-09-24T10:41:47.589Z,1008.17
2022-09-24T10:42:47.567Z,1008.13
2022-09-24T10:43:47.556Z,1008.19
2022-09-24T10:44:52.634Z,1008.14
2022-09-24T10:45:48.529Z,1008.20
2022-09-24T10:46:47.612Z,1008.15
2022-09-24T10:47:47.509Z,1008.14
2022-09-24T10:48:47.495Z,1008.18
2022-09-24T10:49:47.488Z,1008.16
2022-09-24T10:50:47.474Z,1008.15
2022-09-24T10:51:47.483Z,1008.15
2022-09-24T10:52:47.447Z,1008.11
2022-09-24T10:53:47.445Z,1008.18
2022-09-24T10:54:47.452Z,1008.17
2022-09-24T10:55:47.445Z,1008.16
2022-09-24T10:56:47.433Z,1008.16
2022-09-24T10:57:47.431Z,1008.20
2022-09-24T10:58:47.393Z,1008.18
2022-09-24T10:59:47.380Z,1008.17
2022-09-24T11:00:47.363Z,1008.18
2022-09-24T11:01:47.414Z,1008.20
2022-09-24T11:02:47.407Z,1008.20
2022-09-24T11:03:47.323Z,1008.17
2022-09-24T11:04:47.317Z,1008.18
2022-09-24T11:05:47.300Z,1008.19
2022-09-24T11:06:47.299Z,1008.19
2022-09-24T11:07:47.285Z,1008.19
2022-09-24T11:08:47.269Z,1008.18
2022-09-24T11:09:47.260Z,1008.17
2022-09-24T11:10:47.259Z,1008.16
2022-09-24T11:11:47.243Z,1008.20
2022-09-24T11:12:47.230Z,1008.17
2022-09-24T11:13:51.249Z,1008.19
2022-09-24T11:14:47.232Z,1008.17
2022-09-24T11:15:47.220Z,1008.17
2022-09-24T11:16:47.197Z,1008.21
2022-09-24T11:17:47.171Z,1008.21
2022-09-24T11:18:47.156Z,1008.21
2022-09-24T11:19:47.152Z,1008.23
2022-09-24T11:20:47.133Z,1008.22
2022-09-24T11:21:47.131Z,1008.23
2022-09-24T11:22:47.103Z,1008.22
2022-09-24T11:23:47.101Z,1008.22
2022-09-24T11:24:47.089Z,1008.23
2022-09-24T11:25:47.076Z,1008.21
2022-09-24T11:26:47.101Z,1008.19
2022-09-24T11:27:47.044Z,1008.18
2022-09-24T11:28:47.037Z,1008.17
2022-09-24T11:29:47.036Z,1008.18
2022-09-24T11:30:47.023Z,1008.16
2022-09-24T11:31:47.084Z,1008.17
2022-09-24T11:32:46.986Z,1008.10
2022-09-24T11:33:46.985Z,1008.10
2022-09-24T11:34:46.983Z,1008.10
2022-09-24T11:35:46.953Z,1008.07
2022-09-24T11:36:46.963Z,1008.08
2022-09-24T11:37:46.956Z,1008.08
2022-09-24T11:38:46.922Z,1008.04
2022-09-24T11:39:46.919Z,1008.01
2022-09-24T11:40:46.964Z,1008.02
2022-09-24T11:41:46.903Z,1008.03
2022-09-24T11:42:46.978Z,1007.99
2022-09-24T11:43:46.871Z,1008.01
2022-09-24T11:44:46.852Z,1008.00
2022-09-24T11:45:46.845Z,1008.00
2022-09-24T11:46:46.883Z,1007.99
2022-09-24T11:47:46.819Z,1007.98
2022-09-24T11:48:46.809Z,1008.00
2022-09-24T11:49:46.799Z,1008.00
2022-09-24T11:50:48.094Z,1007.95
2022-09-24T11:51:46.807Z,1007.97
2022-09-24T11:52:46.769Z,1007.98
2022-09-24T11:53:46.749Z,1007.98
2022-09-24T11:54:46.738Z,1007.99
2022-09-24T11:55:46.729Z,1007.96
2022-09-24T11:56:46.738Z,1007.98
2022-09-24T11:57:46.706Z,1008.03
2022-09-24T11:58:46.725Z,1008.05
2022-09-24T11:59:46.705Z,1008.06
2022-09-24T12:00:46.679Z,1008.06
2022-09-24T12:01:46.767Z,1008.08
2022-09-24T12:02:46.719Z,1008.06
2022-09-24T12:03:46.662Z,1008.07
2022-09-24T12:04:46.634Z,1008.09
2022-09-24T12:05:46.621Z,1008.07